マナウス の空港の天気 - METARとTAF

エドワルド ゴメス国際空港(マナウス) ( SBEG / MAO ) - ブラジル アマゾナス州マナウス
飛行場実況気象(Metar)
観測時間10/19 23:00 AMT (10/20 03:00 UTC)
風向・風速北北西 1m/s
視程10km以上
天気現象
なし
気温24℃
湿度89%
気圧1012hPa
METARSBEG 200300Z 34001KT CAVOK 24/22 Q1012
過去の天気等 Google飛行場航空写真 Wunderground天気予報

過去48時間のMETAR

飛行場予報(TAF)
発表時間: 10/19 17:30 AMT (10/19 21:30 UTC)
予報対象時間: 19日20時 AMT ~ 20日20時 AMT
風向・風速北 3m/s
視程10km以上
全天の4割程度の雲 雲底高度 610m
19日20時 AMT ~ 19日22時 AMT に徐々に
風向・風速北北西 3m/s
20日3時 AMT ~ 20日6時 AMT に徐々に
風向・風速北西 3m/s
20日7時 AMT ~ 20日9時 AMT に徐々に
風向・風速西南西 3m/s
20日14時 AMT ~ 20日16時 AMT に徐々に
風向・風速北北西 3m/s
20日17時 AMT から 確率 30% で
天気現象
全天の4割程度の雲 雲底高度 610m
少しの積乱雲 雲底高度 910m
TAF SBEG 192130Z 2000/2024 36005KT 9999 SCT020 TN24/2007Z TX30/2017Z
BECMG 2000/2002 34005KT
BECMG 2007/2010 32005KT
BECMG 2011/2013 24005KT
BECMG 2018/2020 34005KT
PROB30 2021/2023 TS SCT020 FEW030CB RMK PGW